Aviation Digital Data Service (ADDS)

Output produced by METARs form (0826 UTC 21 January 2017)
found at http://www.aviationweather.gov/adds/metars/
 
SEGU 210800Z 01007KT 8000 -RA SCT005 BKN023 OVC080 23/22 Q1013 TEMPO 6000 RMK A2994
SEGU 210420Z 2106/2206 30006KT 8000 RA FEW010 BKN016 OVC080 
     FM211300 03005KT 9999 FEW010 BKN020 BKN090 
     FM211800 06005KT 9999 SCT023 BKN100 
     TEMPO 2123/2124 8000 RA BKN020 
     FM220000 30008KT 6000 FEW010 BKN016 OVC080 TX29/2120Z TN23/2110Z
       
SEMT 210800Z 24004KT 9999 BKN020 22/21 Q1014
SEMT 210420Z 2106/2206 20004KT 8000 OVC020 
     FM211400 26010KT 9999 SCT026 BKN100 
     TEMPO 2115/2118 5000 RA BKN020 OVC090 
     FM211800 21006KT 9999 OVC016 TX28/2120Z TN22/2110Z